sensor_id;sensor_type;location;lat;lon;timestamp;P1;durP1;ratioP1;P2;durP2;ratioP2
68196;SDS011;55019;49.382;11.358;2024-01-15T00:00:18;16.08;;;5.72;;
68196;SDS011;55019;49.382;11.358;2024-01-15T00:02:44;23.33;;;6.53;;
68196;SDS011;55019;49.382;11.358;2024-01-15T00:05:10;23.95;;;7.07;;
68196;SDS011;55019;49.382;11.358;2024-01-15T00:07:35;18.95;;;5.78;;
68196;SDS011;55019;49.382;11.358;2024-01-15T00:10:01;20.17;;;6.68;;
68196;SDS011;55019;49.382;11.358;2024-01-15T00:12:27;17.67;;;6.18;;
68196;SDS011;55019;49.382;11.358;2024-01-15T00:14:53;24.13;;;7.22;;
68196;SDS011;55019;49.382;11.358;2024-01-15T00:17:19;24.75;;;7.72;;
68196;SDS011;55019;49.382;11.358;2024-01-15T00:19:45;18.70;;;5.45;;
68196;SDS011;55019;49.382;11.358;2024-01-15T00:22:11;17.73;;;6.50;;
68196;SDS011;55019;49.382;11.358;2024-01-15T00:24:36;24.08;;;5.75;;
68196;SDS011;55019;49.382;11.358;2024-01-15T00:27:02;22.98;;;7.95;;
68196;SDS011;55019;49.382;11.358;2024-01-15T00:29:28;20.35;;;6.43;;
68196;SDS011;55019;49.382;11.358;2024-01-15T00:31:54;17.23;;;5.97;;
68196;SDS011;55019;49.382;11.358;2024-01-15T00:34:19;24.40;;;8.35;;
68196;SDS011;55019;49.382;11.358;2024-01-15T00:36:45;19.10;;;6.68;;
68196;SDS011;55019;49.382;11.358;2024-01-15T00:39:10;24.42;;;6.53;;
68196;SDS011;55019;49.382;11.358;2024-01-15T00:41:36;19.65;;;6.60;;
68196;SDS011;55019;49.382;11.358;2024-01-15T00:44:02;19.10;;;6.75;;
68196;SDS011;55019;49.382;11.358;2024-01-15T00:46:28;22.10;;;6.43;;
68196;SDS011;55019;49.382;11.358;2024-01-15T00:48:54;24.67;;;7.38;;
68196;SDS011;55019;49.382;11.358;2024-01-15T00:51:19;20.30;;;6.63;;
68196;SDS011;55019;49.382;11.358;2024-01-15T00:53:45;23.75;;;6.88;;
68196;SDS011;55019;49.382;11.358;2024-01-15T00:56:11;25.70;;;6.70;;
68196;SDS011;55019;49.382;11.358;2024-01-15T00:58:36;22.20;;;7.03;;
68196;SDS011;55019;49.382;11.358;2024-01-15T01:01:02;21.60;;;7.03;;
68196;SDS011;55019;49.382;11.358;2024-01-15T01:03:28;17.05;;;6.53;;
68196;SDS011;55019;49.382;11.358;2024-01-15T01:05:55;21.50;;;7.75;;
68196;SDS011;55019;49.382;11.358;2024-01-15T01:08:20;22.27;;;6.72;;
68196;SDS011;55019;49.382;11.358;2024-01-15T01:10:46;23.38;;;7.15;;
68196;SDS011;55019;49.382;11.358;2024-01-15T01:13:11;27.17;;;7.70;;
68196;SDS011;55019;49.382;11.358;2024-01-15T01:15:37;28.27;;;7.13;;
68196;SDS011;55019;49.382;11.358;2024-01-15T01:18:04;18.88;;;6.55;;
68196;SDS011;55019;49.382;11.358;2024-01-15T01:20:30;18.95;;;6.47;;
68196;SDS011;55019;49.382;11.358;2024-01-15T01:22:55;21.67;;;6.80;;
68196;SDS011;55019;49.382;11.358;2024-01-15T01:25:21;24.85;;;7.22;;
68196;SDS011;55019;49.382;11.358;2024-01-15T01:27:47;21.98;;;7.25;;
68196;SDS011;55019;49.382;11.358;2024-01-15T01:30:12;20.10;;;6.38;;
68196;SDS011;55019;49.382;11.358;2024-01-15T01:32:38;21.48;;;7.07;;
68196;SDS011;55019;49.382;11.358;2024-01-15T01:35:04;21.27;;;6.57;;
68196;SDS011;55019;49.382;11.358;2024-01-15T01:37:30;29.40;;;7.97;;
68196;SDS011;55019;49.382;11.358;2024-01-15T01:39:55;23.42;;;6.80;;
68196;SDS011;55019;49.382;11.358;2024-01-15T01:42:21;18.77;;;6.88;;
68196;SDS011;55019;49.382;11.358;2024-01-15T01:44:46;21.45;;;6.10;;
68196;SDS011;55019;49.382;11.358;2024-01-15T01:47:12;22.65;;;8.10;;
68196;SDS011;55019;49.382;11.358;2024-01-15T01:49:39;17.33;;;6.85;;
68196;SDS011;55019;49.382;11.358;2024-01-15T01:52:05;23.88;;;7.20;;
68196;SDS011;55019;49.382;11.358;2024-01-15T01:54:32;26.02;;;7.07;;
68196;SDS011;55019;49.382;11.358;2024-01-15T01:57:00;21.00;;;7.63;;
68196;SDS011;55019;49.382;11.358;2024-01-15T02:01:55;12.68;;;5.55;;
68196;SDS011;55019;49.382;11.358;2024-01-15T02:04:25;15.50;;;5.60;;
68196;SDS011;55019;49.382;11.358;2024-01-15T02:06:52;16.55;;;5.80;;
68196;SDS011;55019;49.382;11.358;2024-01-15T02:09:18;20.67;;;6.45;;
68196;SDS011;55019;49.382;11.358;2024-01-15T02:11:46;16.08;;;6.95;;
68196;SDS011;55019;49.382;11.358;2024-01-15T02:14:14;15.60;;;5.10;;
68196;SDS011;55019;49.382;11.358;2024-01-15T02:16:40;20.23;;;6.10;;
68196;SDS011;55019;49.382;11.358;2024-01-15T02:19:06;17.10;;;6.03;;
68196;SDS011;55019;49.382;11.358;2024-01-15T02:21:32;15.90;;;5.30;;
68196;SDS011;55019;49.382;11.358;2024-01-15T02:23:58;19.05;;;5.65;;
68196;SDS011;55019;49.382;11.358;2024-01-15T02:26:24;19.55;;;6.22;;
68196;SDS011;55019;49.382;11.358;2024-01-15T02:28:50;19.70;;;5.30;;
68196;SDS011;55019;49.382;11.358;2024-01-15T02:31:17;24.33;;;6.63;;
68196;SDS011;55019;49.382;11.358;2024-01-15T02:33:43;16.20;;;6.25;;
68196;SDS011;55019;49.382;11.358;2024-01-15T02:36:11;20.83;;;6.07;;
68196;SDS011;55019;49.382;11.358;2024-01-15T02:38:37;19.58;;;6.13;;
68196;SDS011;55019;49.382;11.358;2024-01-15T02:41:03;23.17;;;6.15;;
68196;SDS011;55019;49.382;11.358;2024-01-15T02:43:29;18.90;;;5.35;;
68196;SDS011;55019;49.382;11.358;2024-01-15T02:45:55;16.15;;;5.68;;
68196;SDS011;55019;49.382;11.358;2024-01-15T02:48:20;20.60;;;6.75;;
68196;SDS011;55019;49.382;11.358;2024-01-15T02:50:46;16.73;;;6.53;;
68196;SDS011;55019;49.382;11.358;2024-01-15T02:53:12;17.95;;;4.70;;
68196;SDS011;55019;49.382;11.358;2024-01-15T02:55:37;16.45;;;5.40;;
68196;SDS011;55019;49.382;11.358;2024-01-15T02:58:03;20.45;;;6.65;;
68196;SDS011;55019;49.382;11.358;2024-01-15T03:00:29;19.58;;;5.88;;
68196;SDS011;55019;49.382;11.358;2024-01-15T03:02:55;15.23;;;5.07;;
68196;SDS011;55019;49.382;11.358;2024-01-15T03:05:21;21.33;;;5.78;;
68196;SDS011;55019;49.382;11.358;2024-01-15T03:07:46;19.00;;;6.18;;
68196;SDS011;55019;49.382;11.358;2024-01-15T03:10:13;18.58;;;5.45;;
68196;SDS011;55019;49.382;11.358;2024-01-15T03:12:38;13.98;;;5.15;;
68196;SDS011;55019;49.382;11.358;2024-01-15T03:15:04;20.23;;;4.97;;
68196;SDS011;55019;49.382;11.358;2024-01-15T03:17:30;17.52;;;5.65;;
68196;SDS011;55019;49.382;11.358;2024-01-15T03:19:56;16.77;;;4.93;;
68196;SDS011;55019;49.382;11.358;2024-01-15T03:22:22;17.10;;;5.60;;
68196;SDS011;55019;49.382;11.358;2024-01-15T03:24:47;16.90;;;5.18;;
68196;SDS011;55019;49.382;11.358;2024-01-15T03:27:13;18.42;;;6.03;;
68196;SDS011;55019;49.382;11.358;2024-01-15T03:29:39;12.88;;;4.43;;
68196;SDS011;55019;49.382;11.358;2024-01-15T03:32:05;14.55;;;4.47;;
68196;SDS011;55019;49.382;11.358;2024-01-15T03:34:31;15.00;;;4.90;;
68196;SDS011;55019;49.382;11.358;2024-01-15T03:36:57;15.85;;;4.05;;
68196;SDS011;55019;49.382;11.358;2024-01-15T03:39:24;15.73;;;5.60;;
68196;SDS011;55019;49.382;11.358;2024-01-15T03:41:49;11.95;;;4.85;;
68196;SDS011;55019;49.382;11.358;2024-01-15T03:44:15;11.45;;;3.53;;
68196;SDS011;55019;49.382;11.358;2024-01-15T03:46:41;15.52;;;4.32;;
68196;SDS011;55019;49.382;11.358;2024-01-15T03:49:06;11.90;;;4.30;;
68196;SDS011;55019;49.382;11.358;2024-01-15T03:51:32;14.38;;;4.03;;
68196;SDS011;55019;49.382;11.358;2024-01-15T03:53:58;14.60;;;4.43;;
68196;SDS011;55019;49.382;11.358;2024-01-15T03:56:23;12.77;;;4.57;;
68196;SDS011;55019;49.382;11.358;2024-01-15T03:58:49;12.40;;;5.25;;
68196;SDS011;55019;49.382;11.358;2024-01-15T04:01:15;13.50;;;5.63;;
68196;SDS011;55019;49.382;11.358;2024-01-15T04:03:40;11.32;;;3.95;;
68196;SDS011;55019;49.382;11.358;2024-01-15T04:06:06;16.27;;;4.20;;
68196;SDS011;55019;49.382;11.358;2024-01-15T04:08:31;14.40;;;4.53;;
68196;SDS011;55019;49.382;11.358;2024-01-15T04:10:57;12.73;;;4.45;;
68196;SDS011;55019;49.382;11.358;2024-01-15T04:13:23;8.98;;;3.10;;
68196;SDS011;55019;49.382;11.358;2024-01-15T04:15:48;10.60;;;4.07;;
68196;SDS011;55019;49.382;11.358;2024-01-15T04:18:15;14.10;;;3.72;;
68196;SDS011;55019;49.382;11.358;2024-01-15T04:20:41;15.10;;;4.25;;
68196;SDS011;55019;49.382;11.358;2024-01-15T04:23:07;14.32;;;4.15;;
68196;SDS011;55019;49.382;11.358;2024-01-15T04:25:33;15.10;;;4.30;;
68196;SDS011;55019;49.382;11.358;2024-01-15T04:27:58;13.90;;;3.92;;
68196;SDS011;55019;49.382;11.358;2024-01-15T04:30:24;12.27;;;3.80;;
68196;SDS011;55019;49.382;11.358;2024-01-15T04:32:50;10.23;;;4.10;;
68196;SDS011;55019;49.382;11.358;2024-01-15T04:35:15;8.32;;;2.70;;
68196;SDS011;55019;49.382;11.358;2024-01-15T04:37:41;10.02;;;3.28;;
68196;SDS011;55019;49.382;11.358;2024-01-15T04:40:07;10.35;;;3.90;;
68196;SDS011;55019;49.382;11.358;2024-01-15T04:42:33;11.25;;;3.60;;
68196;SDS011;55019;49.382;11.358;2024-01-15T04:44:59;13.75;;;4.10;;
68196;SDS011;55019;49.382;11.358;2024-01-15T04:47:25;10.65;;;3.00;;
68196;SDS011;55019;49.382;11.358;2024-01-15T04:49:50;10.45;;;3.40;;
68196;SDS011;55019;49.382;11.358;2024-01-15T04:52:16;11.90;;;3.92;;
68196;SDS011;55019;49.382;11.358;2024-01-15T04:54:42;9.57;;;3.80;;
68196;SDS011;55019;49.382;11.358;2024-01-15T04:57:08;8.57;;;3.30;;
68196;SDS011;55019;49.382;11.358;2024-01-15T04:59:33;10.23;;;3.53;;
68196;SDS011;55019;49.382;11.358;2024-01-15T05:01:59;11.00;;;4.05;;
68196;SDS011;55019;49.382;11.358;2024-01-15T05:04:24;13.18;;;3.65;;
68196;SDS011;55019;49.382;11.358;2024-01-15T05:06:50;10.80;;;3.45;;
68196;SDS011;55019;49.382;11.358;2024-01-15T05:09:16;9.20;;;4.25;;
68196;SDS011;55019;49.382;11.358;2024-01-15T05:11:43;12.82;;;4.15;;
68196;SDS011;55019;49.382;11.358;2024-01-15T05:14:09;12.38;;;3.80;;
68196;SDS011;55019;49.382;11.358;2024-01-15T05:16:34;7.43;;;3.08;;
68196;SDS011;55019;49.382;11.358;2024-01-15T05:19:00;11.52;;;4.25;;
68196;SDS011;55019;49.382;11.358;2024-01-15T05:21:26;11.02;;;3.53;;
68196;SDS011;55019;49.382;11.358;2024-01-15T05:23:51;17.25;;;4.13;;
68196;SDS011;55019;49.382;11.358;2024-01-15T05:26:17;9.38;;;3.17;;
68196;SDS011;55019;49.382;11.358;2024-01-15T05:28:43;18.17;;;4.32;;
68196;SDS011;55019;49.382;11.358;2024-01-15T05:31:09;14.02;;;3.85;;
68196;SDS011;55019;49.382;11.358;2024-01-15T05:33:34;12.98;;;3.80;;
68196;SDS011;55019;49.382;11.358;2024-01-15T05:36:00;9.95;;;3.63;;
68196;SDS011;55019;49.382;11.358;2024-01-15T05:38:27;15.82;;;4.68;;
68196;SDS011;55019;49.382;11.358;2024-01-15T05:40:53;10.57;;;4.20;;
68196;SDS011;55019;49.382;11.358;2024-01-15T05:43:18;8.48;;;3.38;;
68196;SDS011;55019;49.382;11.358;2024-01-15T05:45:44;10.63;;;4.10;;
68196;SDS011;55019;49.382;11.358;2024-01-15T05:48:11;14.07;;;4.00;;
68196;SDS011;55019;49.382;11.358;2024-01-15T05:50:37;11.48;;;4.35;;
68196;SDS011;55019;49.382;11.358;2024-01-15T05:53:03;9.80;;;3.65;;
68196;SDS011;55019;49.382;11.358;2024-01-15T05:55:29;14.90;;;4.57;;
68196;SDS011;55019;49.382;11.358;2024-01-15T05:57:55;11.75;;;4.03;;
68196;SDS011;55019;49.382;11.358;2024-01-15T06:00:21;13.23;;;4.47;;
68196;SDS011;55019;49.382;11.358;2024-01-15T06:02:47;7.75;;;3.60;;
68196;SDS011;55019;49.382;11.358;2024-01-15T06:05:13;12.40;;;4.07;;
68196;SDS011;55019;49.382;11.358;2024-01-15T06:07:39;10.25;;;4.45;;
68196;SDS011;55019;49.382;11.358;2024-01-15T06:10:05;8.50;;;2.97;;
68196;SDS011;55019;49.382;11.358;2024-01-15T06:12:31;11.68;;;3.85;;
68196;SDS011;55019;49.382;11.358;2024-01-15T06:14:58;12.88;;;4.35;;
68196;SDS011;55019;49.382;11.358;2024-01-15T06:17:24;13.00;;;3.97;;
68196;SDS011;55019;49.382;11.358;2024-01-15T06:19:50;9.95;;;3.13;;
68196;SDS011;55019;49.382;11.358;2024-01-15T06:22:16;13.63;;;3.70;;
68196;SDS011;55019;49.382;11.358;2024-01-15T06:24:41;10.65;;;3.53;;
68196;SDS011;55019;49.382;11.358;2024-01-15T06:27:08;13.27;;;3.67;;
68196;SDS011;55019;49.382;11.358;2024-01-15T06:29:33;9.07;;;3.60;;
68196;SDS011;55019;49.382;11.358;2024-01-15T06:32:03;10.07;;;4.05;;
68196;SDS011;55019;49.382;11.358;2024-01-15T06:34:29;10.85;;;3.83;;
68196;SDS011;55019;49.382;11.358;2024-01-15T06:36:55;10.52;;;3.13;;
68196;SDS011;55019;49.382;11.358;2024-01-15T06:39:20;8.05;;;3.45;;
68196;SDS011;55019;49.382;11.358;2024-01-15T06:41:47;10.80;;;3.63;;
68196;SDS011;55019;49.382;11.358;2024-01-15T06:44:12;10.23;;;2.97;;
68196;SDS011;55019;49.382;11.358;2024-01-15T06:46:42;10.98;;;3.45;;
68196;SDS011;55019;49.382;11.358;2024-01-15T06:49:08;11.38;;;3.72;;
68196;SDS011;55019;49.382;11.358;2024-01-15T06:51:35;9.32;;;3.40;;
68196;SDS011;55019;49.382;11.358;2024-01-15T06:54:01;8.70;;;2.85;;
68196;SDS011;55019;49.382;11.358;2024-01-15T06:56:27;9.73;;;3.38;;
68196;SDS011;55019;49.382;11.358;2024-01-15T06:58:53;9.77;;;3.90;;
68196;SDS011;55019;49.382;11.358;2024-01-15T07:01:18;12.25;;;4.10;;
68196;SDS011;55019;49.382;11.358;2024-01-15T07:03:44;9.30;;;3.72;;
68196;SDS011;55019;49.382;11.358;2024-01-15T07:06:10;10.65;;;3.53;;
68196;SDS011;55019;49.382;11.358;2024-01-15T07:08:37;8.73;;;3.13;;
68196;SDS011;55019;49.382;11.358;2024-01-15T07:11:06;13.52;;;3.72;;
68196;SDS011;55019;49.382;11.358;2024-01-15T07:13:32;11.95;;;3.92;;
68196;SDS011;55019;49.382;11.358;2024-01-15T07:15:57;8.65;;;3.38;;
68196;SDS011;55019;49.382;11.358;2024-01-15T07:18:23;9.90;;;3.88;;
68196;SDS011;55019;49.382;11.358;2024-01-15T07:20:49;9.90;;;3.53;;
68196;SDS011;55019;49.382;11.358;2024-01-15T07:23:15;8.07;;;3.25;;
68196;SDS011;55019;49.382;11.358;2024-01-15T07:25:40;11.18;;;3.97;;
68196;SDS011;55019;49.382;11.358;2024-01-15T07:28:06;5.25;;;2.42;;
68196;SDS011;55019;49.382;11.358;2024-01-15T07:30:32;10.35;;;3.35;;
68196;SDS011;55019;49.382;11.358;2024-01-15T07:32:57;11.05;;;3.70;;
68196;SDS011;55019;49.382;11.358;2024-01-15T07:35:23;12.05;;;3.85;;
68196;SDS011;55019;49.382;11.358;2024-01-15T07:37:49;7.63;;;2.75;;
68196;SDS011;55019;49.382;11.358;2024-01-15T07:40:15;8.85;;;3.35;;
68196;SDS011;55019;49.382;11.358;2024-01-15T07:42:41;10.75;;;3.67;;
68196;SDS011;55019;49.382;11.358;2024-01-15T07:45:08;11.43;;;3.33;;
68196;SDS011;55019;49.382;11.358;2024-01-15T07:47:37;8.70;;;3.20;;
68196;SDS011;55019;49.382;11.358;2024-01-15T07:50:03;9.85;;;2.78;;
68196;SDS011;55019;49.382;11.358;2024-01-15T07:52:30;13.63;;;4.28;;
68196;SDS011;55019;49.382;11.358;2024-01-15T07:54:56;10.25;;;3.17;;
68196;SDS011;55019;49.382;11.358;2024-01-15T07:57:21;13.30;;;3.75;;
68196;SDS011;55019;49.382;11.358;2024-01-15T07:59:48;9.25;;;3.10;;
68196;SDS011;55019;49.382;11.358;2024-01-15T08:02:14;10.35;;;3.55;;
68196;SDS011;55019;49.382;11.358;2024-01-15T08:04:40;7.30;;;3.35;;
68196;SDS011;55019;49.382;11.358;2024-01-15T08:07:06;11.88;;;4.07;;
68196;SDS011;55019;49.382;11.358;2024-01-15T08:09:35;10.73;;;2.85;;
68196;SDS011;55019;49.382;11.358;2024-01-15T08:12:01;12.30;;;3.55;;
68196;SDS011;55019;49.382;11.358;2024-01-15T08:14:27;10.25;;;3.22;;
68196;SDS011;55019;49.382;11.358;2024-01-15T08:16:53;7.30;;;3.42;;
68196;SDS011;55019;49.382;11.358;2024-01-15T08:19:18;8.25;;;3.72;;
68196;SDS011;55019;49.382;11.358;2024-01-15T08:21:45;12.02;;;4.30;;
68196;SDS011;55019;49.382;11.358;2024-01-15T08:24:11;9.63;;;3.28;;
68196;SDS011;55019;49.382;11.358;2024-01-15T08:26:37;10.45;;;3.45;;
68196;SDS011;55019;49.382;11.358;2024-01-15T08:29:03;9.77;;;4.15;;
68196;SDS011;55019;49.382;11.358;2024-01-15T08:31:29;11.30;;;3.47;;
68196;SDS011;55019;49.382;11.358;2024-01-15T08:33:54;9.38;;;2.95;;
68196;SDS011;55019;49.382;11.358;2024-01-15T08:36:21;13.00;;;3.58;;
68196;SDS011;55019;49.382;11.358;2024-01-15T08:38:47;11.38;;;4.22;;
68196;SDS011;55019;49.382;11.358;2024-01-15T08:41:13;8.02;;;3.17;;
68196;SDS011;55019;49.382;11.358;2024-01-15T08:43:39;10.82;;;3.63;;
68196;SDS011;55019;49.382;11.358;2024-01-15T08:46:05;8.10;;;3.80;;
68196;SDS011;55019;49.382;11.358;2024-01-15T08:48:31;8.40;;;3.38;;
68196;SDS011;55019;49.382;11.358;2024-01-15T08:50:57;12.10;;;4.00;;
68196;SDS011;55019;49.382;11.358;2024-01-15T08:53:22;9.40;;;3.42;;
68196;SDS011;55019;49.382;11.358;2024-01-15T08:55:48;8.48;;;3.45;;
68196;SDS011;55019;49.382;11.358;2024-01-15T08:58:14;8.70;;;3.35;;
68196;SDS011;55019;49.382;11.358;2024-01-15T09:00:40;10.80;;;3.72;;
68196;SDS011;55019;49.382;11.358;2024-01-15T09:03:06;10.98;;;3.67;;
68196;SDS011;55019;49.382;11.358;2024-01-15T09:05:33;9.65;;;3.72;;
68196;SDS011;55019;49.382;11.358;2024-01-15T09:07:59;7.45;;;3.30;;
68196;SDS011;55019;49.382;11.358;2024-01-15T09:10:25;11.20;;;4.30;;
68196;SDS011;55019;49.382;11.358;2024-01-15T09:12:51;6.57;;;2.63;;
68196;SDS011;55019;49.382;11.358;2024-01-15T09:15:16;7.47;;;3.45;;
68196;SDS011;55019;49.382;11.358;2024-01-15T09:17:42;7.63;;;3.17;;
68196;SDS011;55019;49.382;11.358;2024-01-15T09:20:08;6.25;;;3.35;;
68196;SDS011;55019;49.382;11.358;2024-01-15T09:22:35;7.85;;;3.45;;
68196;SDS011;55019;49.382;11.358;2024-01-15T09:25:04;6.85;;;3.78;;
68196;SDS011;55019;49.382;11.358;2024-01-15T09:27:30;8.85;;;2.92;;
68196;SDS011;55019;49.382;11.358;2024-01-15T09:29:56;9.38;;;3.45;;
68196;SDS011;55019;49.382;11.358;2024-01-15T09:32:21;8.05;;;3.15;;
68196;SDS011;55019;49.382;11.358;2024-01-15T09:34:47;7.07;;;2.85;;
68196;SDS011;55019;49.382;11.358;2024-01-15T09:37:14;8.52;;;2.60;;
68196;SDS011;55019;49.382;11.358;2024-01-15T09:39:40;9.18;;;3.53;;
68196;SDS011;55019;49.382;11.358;2024-01-15T09:42:06;9.05;;;3.17;;
68196;SDS011;55019;49.382;11.358;2024-01-15T09:44:33;6.82;;;2.80;;
68196;SDS011;55019;49.382;11.358;2024-01-15T09:46:59;7.03;;;2.92;;
68196;SDS011;55019;49.382;11.358;2024-01-15T09:49:26;12.20;;;5.25;;
68196;SDS011;55019;49.382;11.358;2024-01-15T09:51:52;6.80;;;2.72;;
68196;SDS011;55019;49.382;11.358;2024-01-15T09:54:18;8.40;;;2.88;;
68196;SDS011;55019;49.382;11.358;2024-01-15T09:56:47;11.05;;;3.20;;
68196;SDS011;55019;49.382;11.358;2024-01-15T09:59:16;10.48;;;3.53;;
68196;SDS011;55019;49.382;11.358;2024-01-15T10:01:43;10.05;;;2.83;;
68196;SDS011;55019;49.382;11.358;2024-01-15T10:04:13;8.95;;;3.25;;
68196;SDS011;55019;49.382;11.358;2024-01-15T10:06:46;7.97;;;3.10;;
68196;SDS011;55019;49.382;11.358;2024-01-15T10:09:13;7.75;;;3.00;;
68196;SDS011;55019;49.382;11.358;2024-01-15T10:11:42;6.60;;;2.80;;
68196;SDS011;55019;49.382;11.358;2024-01-15T10:14:09;7.55;;;2.75;;
68196;SDS011;55019;49.382;11.358;2024-01-15T10:16:38;5.18;;;2.25;;
68196;SDS011;55019;49.382;11.358;2024-01-15T10:19:07;4.18;;;2.20;;
68196;SDS011;55019;49.382;11.358;2024-01-15T10:21:33;4.45;;;2.22;;
68196;SDS011;55019;49.382;11.358;2024-01-15T10:24:05;4.55;;;2.20;;
68196;SDS011;55019;49.382;11.358;2024-01-15T10:26:32;7.13;;;2.33;;
68196;SDS011;55019;49.382;11.358;2024-01-15T10:29:00;5.85;;;2.40;;
68196;SDS011;55019;49.382;11.358;2024-01-15T10:31:27;8.30;;;2.83;;
68196;SDS011;55019;49.382;11.358;2024-01-15T10:33:53;5.55;;;2.50;;
68196;SDS011;55019;49.382;11.358;2024-01-15T10:36:22;6.13;;;2.20;;
68196;SDS011;55019;49.382;11.358;2024-01-15T10:38:48;5.30;;;2.97;;
68196;SDS011;55019;49.382;11.358;2024-01-15T10:41:13;7.38;;;2.90;;
68196;SDS011;55019;49.382;11.358;2024-01-15T10:43:39;7.28;;;3.00;;
68196;SDS011;55019;49.382;11.358;2024-01-15T10:46:08;8.52;;;2.55;;
68196;SDS011;55019;49.382;11.358;2024-01-15T10:48:34;5.00;;;2.67;;
68196;SDS011;55019;49.382;11.358;2024-01-15T10:51:01;10.68;;;2.92;;
68196;SDS011;55019;49.382;11.358;2024-01-15T10:53:36;9.80;;;2.45;;
68196;SDS011;55019;49.382;11.358;2024-01-15T10:56:05;6.05;;;2.45;;
68196;SDS011;55019;49.382;11.358;2024-01-15T10:58:32;6.68;;;2.95;;
68196;SDS011;55019;49.382;11.358;2024-01-15T11:03:26;4.15;;;1.95;;
68196;SDS011;55019;49.382;11.358;2024-01-15T11:05:53;8.45;;;2.55;;
68196;SDS011;55019;49.382;11.358;2024-01-15T11:08:19;6.18;;;2.58;;
68196;SDS011;55019;49.382;11.358;2024-01-15T11:10:51;8.18;;;2.50;;
68196;SDS011;55019;49.382;11.358;2024-01-15T11:13:21;7.70;;;2.28;;
68196;SDS011;55019;49.382;11.358;2024-01-15T11:16:04;8.25;;;2.42;;
68196;SDS011;55019;49.382;11.358;2024-01-15T11:18:34;7.20;;;2.38;;
68196;SDS011;55019;49.382;11.358;2024-01-15T11:23:46;6.97;;;3.15;;
68196;SDS011;55019;49.382;11.358;2024-01-15T11:29:00;4.85;;;1.85;;
68196;SDS011;55019;49.382;11.358;2024-01-15T11:34:13;6.55;;;2.17;;
68196;SDS011;55019;49.382;11.358;2024-01-15T11:41:54;8.88;;;2.83;;
68196;SDS011;55019;49.382;11.358;2024-01-15T11:44:21;8.38;;;2.95;;
68196;SDS011;55019;49.382;11.358;2024-01-15T11:46:53;6.70;;;2.58;;
68196;SDS011;55019;49.382;11.358;2024-01-15T11:51:58;6.93;;;2.45;;
68196;SDS011;55019;49.382;11.358;2024-01-15T11:54:26;7.75;;;3.28;;
68196;SDS011;55019;49.382;11.358;2024-01-15T11:56:57;6.00;;;3.08;;
68196;SDS011;55019;49.382;11.358;2024-01-15T11:59:29;9.38;;;2.55;;
68196;SDS011;55019;49.382;11.358;2024-01-15T12:01:55;5.03;;;2.92;;
68196;SDS011;55019;49.382;11.358;2024-01-15T12:04:24;4.85;;;2.50;;
68196;SDS011;55019;49.382;11.358;2024-01-15T12:06:49;6.72;;;2.40;;
68196;SDS011;55019;49.382;11.358;2024-01-15T12:09:18;7.78;;;3.75;;
68196;SDS011;55019;49.382;11.358;2024-01-15T12:11:46;5.70;;;2.75;;
68196;SDS011;55019;49.382;11.358;2024-01-15T12:14:22;8.30;;;2.70;;
68196;SDS011;55019;49.382;11.358;2024-01-15T12:16:48;7.00;;;2.78;;
68196;SDS011;55019;49.382;11.358;2024-01-15T12:19:15;5.40;;;2.17;;
68196;SDS011;55019;49.382;11.358;2024-01-15T12:21:41;4.03;;;1.77;;
68196;SDS011;55019;49.382;11.358;2024-01-15T12:24:07;5.85;;;2.25;;
68196;SDS011;55019;49.382;11.358;2024-01-15T12:26:33;4.97;;;2.35;;
68196;SDS011;55019;49.382;11.358;2024-01-15T12:29:02;7.18;;;2.45;;
68196;SDS011;55019;49.382;11.358;2024-01-15T12:31:29;4.95;;;2.15;;
68196;SDS011;55019;49.382;11.358;2024-01-15T12:33:55;6.07;;;2.47;;
68196;SDS011;55019;49.382;11.358;2024-01-15T12:36:21;5.95;;;2.10;;
68196;SDS011;55019;49.382;11.358;2024-01-15T12:38:47;5.55;;;2.75;;
68196;SDS011;55019;49.382;11.358;2024-01-15T12:41:13;4.72;;;2.10;;
68196;SDS011;55019;49.382;11.358;2024-01-15T12:43:42;5.32;;;2.47;;
68196;SDS011;55019;49.382;11.358;2024-01-15T12:46:08;5.70;;;2.22;;
68196;SDS011;55019;49.382;11.358;2024-01-15T12:48:37;5.25;;;2.60;;
68196;SDS011;55019;49.382;11.358;2024-01-15T12:53:31;8.07;;;2.25;;
68196;SDS011;55019;49.382;11.358;2024-01-15T12:55:56;3.53;;;1.95;;
68196;SDS011;55019;49.382;11.358;2024-01-15T12:58:22;5.65;;;2.30;;
68196;SDS011;55019;49.382;11.358;2024-01-15T13:00:48;4.53;;;2.13;;
68196;SDS011;55019;49.382;11.358;2024-01-15T13:03:13;3.67;;;1.67;;
68196;SDS011;55019;49.382;11.358;2024-01-15T13:05:39;6.15;;;2.22;;
68196;SDS011;55019;49.382;11.358;2024-01-15T13:08:09;6.93;;;2.47;;
68196;SDS011;55019;49.382;11.358;2024-01-15T13:10:35;6.32;;;3.05;;
68196;SDS011;55019;49.382;11.358;2024-01-15T13:13:00;4.00;;;2.28;;
68196;SDS011;55019;49.382;11.358;2024-01-15T13:15:27;5.90;;;2.60;;
68196;SDS011;55019;49.382;11.358;2024-01-15T13:17:52;4.32;;;2.00;;
68196;SDS011;55019;49.382;11.358;2024-01-15T13:20:18;6.32;;;2.42;;
68196;SDS011;55019;49.382;11.358;2024-01-15T13:22:44;5.65;;;2.20;;
68196;SDS011;55019;49.382;11.358;2024-01-15T13:25:11;6.95;;;2.20;;
68196;SDS011;55019;49.382;11.358;2024-01-15T13:27:41;7.05;;;3.15;;
68196;SDS011;55019;49.382;11.358;2024-01-15T13:30:13;8.35;;;2.38;;
68196;SDS011;55019;49.382;11.358;2024-01-15T13:32:52;9.48;;;3.00;;
68196;SDS011;55019;49.382;11.358;2024-01-15T13:35:19;6.75;;;3.50;;
68196;SDS011;55019;49.382;11.358;2024-01-15T13:37:48;4.55;;;2.22;;
68196;SDS011;55019;49.382;11.358;2024-01-15T13:40:13;3.78;;;2.30;;
68196;SDS011;55019;49.382;11.358;2024-01-15T13:42:45;5.75;;;2.22;;
68196;SDS011;55019;49.382;11.358;2024-01-15T13:45:11;5.15;;;2.17;;
68196;SDS011;55019;49.382;11.358;2024-01-15T13:47:40;4.25;;;2.35;;
68196;SDS011;55019;49.382;11.358;2024-01-15T13:50:07;4.05;;;1.98;;
68196;SDS011;55019;49.382;11.358;2024-01-15T13:52:34;5.30;;;2.20;;
68196;SDS011;55019;49.382;11.358;2024-01-15T13:55:00;4.88;;;2.08;;
68196;SDS011;55019;49.382;11.358;2024-01-15T13:57:26;5.70;;;2.60;;
68196;SDS011;55019;49.382;11.358;2024-01-15T14:02:22;6.03;;;1.85;;
68196;SDS011;55019;49.382;11.358;2024-01-15T14:04:48;5.50;;;2.10;;
68196;SDS011;55019;49.382;11.358;2024-01-15T14:07:13;4.60;;;2.05;;
68196;SDS011;55019;49.382;11.358;2024-01-15T14:09:39;3.40;;;1.38;;
68196;SDS011;55019;49.382;11.358;2024-01-15T14:12:05;4.38;;;2.28;;
68196;SDS011;55019;49.382;11.358;2024-01-15T14:14:31;2.80;;;1.90;;
68196;SDS011;55019;49.382;11.358;2024-01-15T14:16:57;4.15;;;2.03;;
68196;SDS011;55019;49.382;11.358;2024-01-15T14:19:22;5.50;;;2.00;;
68196;SDS011;55019;49.382;11.358;2024-01-15T14:21:48;4.75;;;1.65;;
68196;SDS011;55019;49.382;11.358;2024-01-15T14:24:14;5.53;;;2.13;;
68196;SDS011;55019;49.382;11.358;2024-01-15T14:26:41;4.75;;;1.60;;
68196;SDS011;55019;49.382;11.358;2024-01-15T14:29:07;3.70;;;1.90;;
68196;SDS011;55019;49.382;11.358;2024-01-15T14:31:33;4.55;;;2.17;;
68196;SDS011;55019;49.382;11.358;2024-01-15T14:33:59;6.47;;;2.38;;
68196;SDS011;55019;49.382;11.358;2024-01-15T14:36:25;4.50;;;1.73;;
68196;SDS011;55019;49.382;11.358;2024-01-15T14:38:51;5.55;;;2.50;;
68196;SDS011;55019;49.382;11.358;2024-01-15T14:41:17;5.90;;;2.15;;
68196;SDS011;55019;49.382;11.358;2024-01-15T14:43:46;6.00;;;2.63;;
68196;SDS011;55019;49.382;11.358;2024-01-15T14:46:11;7.50;;;3.03;;
68196;SDS011;55019;49.382;11.358;2024-01-15T14:48:37;4.03;;;2.42;;